sensor_id;sensor_type;location;lat;lon;timestamp;pressure;altitude;pressure_sealevel;temperature;humidity
54666;BME280;40566;50.006;36.180;2023-08-06T00:04:47;99746.00;;;23.14;70.05
54666;BME280;40566;50.006;36.180;2023-08-06T00:09:48;99746.34;;;23.10;70.47
54666;BME280;40566;50.006;36.180;2023-08-06T00:14:52;99719.53;;;23.05;70.69
54666;BME280;40566;50.006;36.180;2023-08-06T00:19:53;99730.53;;;22.99;70.96
54666;BME280;40566;50.006;36.180;2023-08-06T00:24:53;99730.16;;;22.92;71.05
54666;BME280;40566;50.006;36.180;2023-08-06T00:29:58;99716.38;;;22.88;71.18
54666;BME280;40566;50.006;36.180;2023-08-06T00:34:58;99714.13;;;22.84;71.17
54666;BME280;40566;50.006;36.180;2023-08-06T00:39:59;99719.78;;;22.79;71.39
54666;BME280;40566;50.006;36.180;2023-08-06T00:45:00;99710.16;;;22.78;71.64
54666;BME280;40566;50.006;36.180;2023-08-06T00:50:01;99722.53;;;22.77;71.59
54666;BME280;40566;50.006;36.180;2023-08-06T00:55:02;99713.06;;;22.75;71.73
54666;BME280;40566;50.006;36.180;2023-08-06T01:00:03;99705.38;;;22.72;71.65
54666;BME280;40566;50.006;36.180;2023-08-06T01:05:04;99698.41;;;22.71;71.97
54666;BME280;40566;50.006;36.180;2023-08-06T01:15:41;99684.06;;;22.64;72.23
54666;BME280;40566;50.006;36.180;2023-08-06T01:20:44;99695.81;;;22.60;72.46
54666;BME280;40566;50.006;36.180;2023-08-06T01:31:15;99682.75;;;22.58;72.34
54666;BME280;40566;50.006;36.180;2023-08-06T01:36:19;99677.97;;;22.52;72.75
54666;BME280;40566;50.006;36.180;2023-08-06T01:41:20;99695.44;;;22.53;72.66
54666;BME280;40566;50.006;36.180;2023-08-06T01:46:21;99701.31;;;22.56;72.61
54666;BME280;40566;50.006;36.180;2023-08-06T01:51:21;99702.41;;;22.54;72.65
54666;BME280;40566;50.006;36.180;2023-08-06T01:56:22;99701.56;;;22.53;72.78
54666;BME280;40566;50.006;36.180;2023-08-06T02:01:23;99701.06;;;22.48;72.63
54666;BME280;40566;50.006;36.180;2023-08-06T02:06:23;99693.88;;;22.50;72.78
54666;BME280;40566;50.006;36.180;2023-08-06T02:11:24;99703.72;;;22.48;72.63
54666;BME280;40566;50.006;36.180;2023-08-06T02:16:24;99691.97;;;22.41;72.82
54666;BME280;40566;50.006;36.180;2023-08-06T02:21:25;99700.59;;;22.43;72.90
54666;BME280;40566;50.006;36.180;2023-08-06T02:26:25;99700.38;;;22.46;72.76
54666;BME280;40566;50.006;36.180;2023-08-06T02:31:26;99705.41;;;22.49;72.68
54666;BME280;40566;50.006;36.180;2023-08-06T02:36:26;99703.00;;;22.46;72.45
54666;BME280;40566;50.006;36.180;2023-08-06T02:41:29;99698.66;;;22.45;72.57
54666;BME280;40566;50.006;36.180;2023-08-06T02:46:30;99698.44;;;22.48;72.73
54666;BME280;40566;50.006;36.180;2023-08-06T02:51:30;99703.72;;;22.48;72.63
54666;BME280;40566;50.006;36.180;2023-08-06T02:56:31;99704.44;;;22.50;72.77
54666;BME280;40566;50.006;36.180;2023-08-06T03:01:32;99696.41;;;22.52;72.58
54666;BME280;40566;50.006;36.180;2023-08-06T03:06:33;99701.31;;;22.56;72.46
54666;BME280;40566;50.006;36.180;2023-08-06T03:11:34;99684.56;;;22.57;72.53
54666;BME280;40566;50.006;36.180;2023-08-06T03:16:35;99680.81;;;22.60;72.46
54666;BME280;40566;50.006;36.180;2023-08-06T03:21:35;99690.75;;;22.68;72.24
54666;BME280;40566;50.006;36.180;2023-08-06T03:26:36;99688.72;;;22.71;72.33
54666;BME280;40566;50.006;36.180;2023-08-06T03:31:36;99687.53;;;22.75;71.91
54666;BME280;40566;50.006;36.180;2023-08-06T03:36:37;99689.78;;;22.80;72.12
54666;BME280;40566;50.006;36.180;2023-08-06T03:41:37;99688.34;;;22.87;72.27
54666;BME280;40566;50.006;36.180;2023-08-06T03:46:38;99687.84;;;22.93;71.99
54666;BME280;40566;50.006;36.180;2023-08-06T03:51:38;99689.88;;;23.01;71.80
54666;BME280;40566;50.006;36.180;2023-08-06T03:56:39;99688.56;;;23.07;71.71
54666;BME280;40566;50.006;36.180;2023-08-06T04:01:40;99692.25;;;23.15;71.63
54666;BME280;40566;50.006;36.180;2023-08-06T04:06:40;99689.00;;;23.23;71.34
54666;BME280;40566;50.006;36.180;2023-08-06T04:11:41;99695.47;;;23.30;71.23
54666;BME280;40566;50.006;36.180;2023-08-06T04:16:41;99695.78;;;23.37;71.05
54666;BME280;40566;50.006;36.180;2023-08-06T04:21:42;99678.34;;;23.46;70.82
54666;BME280;40566;50.006;36.180;2023-08-06T04:26:42;99686.34;;;23.55;70.86
54666;BME280;40566;50.006;36.180;2023-08-06T04:31:44;99682.69;;;23.68;70.55
54666;BME280;40566;50.006;36.180;2023-08-06T04:36:44;99684.44;;;23.79;69.93
54666;BME280;40566;50.006;36.180;2023-08-06T04:41:45;99681.88;;;23.88;69.87
54666;BME280;40566;50.006;36.180;2023-08-06T04:46:45;99677.59;;;23.97;69.69
54666;BME280;40566;50.006;36.180;2023-08-06T04:51:46;99670.44;;;24.09;69.64
54666;BME280;40566;50.006;36.180;2023-08-06T04:56:46;99660.78;;;24.19;69.08
54666;BME280;40566;50.006;36.180;2023-08-06T05:01:47;99663.06;;;24.33;68.74
54666;BME280;40566;50.006;36.180;2023-08-06T05:06:48;99651.41;;;24.46;68.79
54666;BME280;40566;50.006;36.180;2023-08-06T05:11:49;99647.88;;;24.57;68.24
54666;BME280;40566;50.006;36.180;2023-08-06T05:16:49;99649.28;;;24.70;68.05
54666;BME280;40566;50.006;36.180;2023-08-06T05:21:50;99640.13;;;24.84;67.65
54666;BME280;40566;50.006;36.180;2023-08-06T05:26:50;99632.03;;;24.96;67.09
54666;BME280;40566;50.006;36.180;2023-08-06T05:31:51;99633.31;;;25.11;66.86
54666;BME280;40566;50.006;36.180;2023-08-06T05:36:51;99625.97;;;25.24;66.98
54666;BME280;40566;50.006;36.180;2023-08-06T05:41:53;99626.53;;;25.38;66.30
54666;BME280;40566;50.006;36.180;2023-08-06T05:46:53;99622.44;;;25.53;65.96
54666;BME280;40566;50.006;36.180;2023-08-06T05:51:54;99620.06;;;25.69;65.48
54666;BME280;40566;50.006;36.180;2023-08-06T05:56:54;99616.38;;;25.80;65.47
54666;BME280;40566;50.006;36.180;2023-08-06T06:01:55;99620.28;;;25.96;64.87
54666;BME280;40566;50.006;36.180;2023-08-06T06:06:55;99619.94;;;26.08;64.62
54666;BME280;40566;50.006;36.180;2023-08-06T06:11:56;99608.19;;;26.21;64.40
54666;BME280;40566;50.006;36.180;2023-08-06T06:16:57;99605.44;;;26.40;63.81
54666;BME280;40566;50.006;36.180;2023-08-06T06:21:57;99600.44;;;26.55;63.65
54666;BME280;40566;50.006;36.180;2023-08-06T06:26:58;99605.13;;;26.71;63.19
54666;BME280;40566;50.006;36.180;2023-08-06T06:31:59;99605.88;;;26.81;62.19
54666;BME280;40566;50.006;36.180;2023-08-06T06:36:59;99595.88;;;26.93;61.29
54666;BME280;40566;50.006;36.180;2023-08-06T06:42:00;99603.16;;;27.09;60.89
54666;BME280;40566;50.006;36.180;2023-08-06T06:47:00;99589.34;;;27.23;60.85
54666;BME280;40566;50.006;36.180;2023-08-06T06:52:01;99586.16;;;27.38;59.93
54666;BME280;40566;50.006;36.180;2023-08-06T06:57:01;99584.09;;;27.49;59.00
54666;BME280;40566;50.006;36.180;2023-08-06T07:02:02;99589.84;;;27.63;59.23
54666;BME280;40566;50.006;36.180;2023-08-06T07:07:04;99580.75;;;27.74;58.75
54666;BME280;40566;50.006;36.180;2023-08-06T07:12:05;99578.38;;;27.88;58.06
54666;BME280;40566;50.006;36.180;2023-08-06T07:17:06;99573.94;;;27.97;57.99
54666;BME280;40566;50.006;36.180;2023-08-06T07:22:07;99562.16;;;28.08;57.28
54666;BME280;40566;50.006;36.180;2023-08-06T07:27:08;99565.69;;;28.17;57.17
54666;BME280;40566;50.006;36.180;2023-08-06T07:32:09;99560.09;;;28.28;57.17
54666;BME280;40566;50.006;36.180;2023-08-06T07:37:11;99566.63;;;28.42;56.58
54666;BME280;40566;50.006;36.180;2023-08-06T07:42:11;99554.19;;;28.59;56.00
54666;BME280;40566;50.006;36.180;2023-08-06T07:47:12;99547.53;;;28.71;55.94
54666;BME280;40566;50.006;36.180;2023-08-06T07:52:13;99540.94;;;28.83;55.83
54666;BME280;40566;50.006;36.180;2023-08-06T07:57:13;99539.59;;;28.96;55.46
54666;BME280;40566;50.006;36.180;2023-08-06T08:02:15;99541.56;;;29.10;54.93
54666;BME280;40566;50.006;36.180;2023-08-06T08:07:16;99540.25;;;29.22;54.69
54666;BME280;40566;50.006;36.180;2023-08-06T08:12:16;99524.75;;;29.34;53.73
54666;BME280;40566;50.006;36.180;2023-08-06T08:17:17;99527.22;;;29.44;53.70
54666;BME280;40566;50.006;36.180;2023-08-06T08:22:17;99520.56;;;29.56;53.85
54666;BME280;40566;50.006;36.180;2023-08-06T08:27:18;99516.03;;;29.65;53.52
54666;BME280;40566;50.006;36.180;2023-08-06T08:32:18;99517.69;;;29.74;53.34
54666;BME280;40566;50.006;36.180;2023-08-06T08:37:19;99500.84;;;29.82;52.80
54666;BME280;40566;50.006;36.180;2023-08-06T08:42:21;99494.75;;;29.96;52.29
54666;BME280;40566;50.006;36.180;2023-08-06T08:47:23;99496.34;;;30.05;52.16
54666;BME280;40566;50.006;36.180;2023-08-06T08:52:25;99486.50;;;30.14;51.80
54666;BME280;40566;50.006;36.180;2023-08-06T08:57:28;99485.06;;;30.27;51.21
54666;BME280;40566;50.006;36.180;2023-08-06T09:02:28;99478.88;;;30.34;50.86
54666;BME280;40566;50.006;36.180;2023-08-06T09:07:34;99474.06;;;30.53;50.79
54666;BME280;40566;50.006;36.180;2023-08-06T09:12:35;99472.19;;;30.61;50.11
54666;BME280;40566;50.006;36.180;2023-08-06T09:17:36;99468.63;;;30.69;49.90
54666;BME280;40566;50.006;36.180;2023-08-06T09:22:37;99454.16;;;30.78;49.54
54666;BME280;40566;50.006;36.180;2023-08-06T09:27:37;99456.44;;;30.90;49.62
54666;BME280;40566;50.006;36.180;2023-08-06T09:32:48;99443.94;;;31.05;49.01
54666;BME280;40566;50.006;36.180;2023-08-06T09:37:51;99441.91;;;31.07;48.97
54666;BME280;40566;50.006;36.180;2023-08-06T09:42:52;99438.03;;;31.10;49.30
54666;BME280;40566;50.006;36.180;2023-08-06T09:47:56;99415.81;;;31.24;48.52
54666;BME280;40566;50.006;36.180;2023-08-06T09:52:58;99413.53;;;31.51;48.34
54666;BME280;40566;50.006;36.180;2023-08-06T09:57:59;99413.78;;;32.29;45.75
54666;BME280;40566;50.006;36.180;2023-08-06T10:03:00;99412.69;;;32.66;43.99
54666;BME280;40566;50.006;36.180;2023-08-06T10:08:02;99411.00;;;32.58;43.83
54666;BME280;40566;50.006;36.180;2023-08-06T10:13:05;99392.97;;;32.24;44.04
54666;BME280;40566;50.006;36.180;2023-08-06T10:18:07;99394.63;;;32.25;44.27
54666;BME280;40566;50.006;36.180;2023-08-06T10:23:08;99398.56;;;32.51;43.83
54666;BME280;40566;50.006;36.180;2023-08-06T10:28:10;99390.78;;;33.12;42.04
54666;BME280;40566;50.006;36.180;2023-08-06T10:33:13;99396.13;;;33.54;41.42
54666;BME280;40566;50.006;36.180;2023-08-06T10:38:22;99374.97;;;33.79;40.61
54666;BME280;40566;50.006;36.180;2023-08-06T10:43:31;99368.19;;;33.35;41.77
54666;BME280;40566;50.006;36.180;2023-08-06T10:53:37;99363.34;;;33.10;42.15
54666;BME280;40566;50.006;36.180;2023-08-06T10:58:38;99363.84;;;32.92;42.32
54666;BME280;40566;50.006;36.180;2023-08-06T11:03:39;99348.69;;;32.78;43.01
54666;BME280;40566;50.006;36.180;2023-08-06T11:08:47;99343.47;;;32.98;42.48
54666;BME280;40566;50.006;36.180;2023-08-06T11:13:49;99334.81;;;33.44;41.57
54666;BME280;40566;50.006;36.180;2023-08-06T11:18:50;99345.72;;;34.64;39.63
54666;BME280;40566;50.006;36.180;2023-08-06T11:23:51;99336.97;;;35.86;37.17
54666;BME280;40566;50.006;36.180;2023-08-06T11:28:52;99327.09;;;34.63;38.32
54666;BME280;40566;50.006;36.180;2023-08-06T11:33:54;99314.28;;;33.85;39.63
54666;BME280;40566;50.006;36.180;2023-08-06T11:38:55;99312.53;;;33.50;39.47
54666;BME280;40566;50.006;36.180;2023-08-06T11:43:55;99314.75;;;33.27;39.22
54666;BME280;40566;50.006;36.180;2023-08-06T11:48:58;99300.69;;;33.18;38.75
54666;BME280;40566;50.006;36.180;2023-08-06T11:53:58;99305.84;;;33.19;38.24
54666;BME280;40566;50.006;36.180;2023-08-06T11:59:00;99288.56;;;33.29;38.59
54666;BME280;40566;50.006;36.180;2023-08-06T12:04:00;99285.50;;;33.38;38.00
54666;BME280;40566;50.006;36.180;2023-08-06T12:09:01;99288.22;;;33.58;37.45
54666;BME280;40566;50.006;36.180;2023-08-06T12:14:02;99274.56;;;33.47;37.65
54666;BME280;40566;50.006;36.180;2023-08-06T12:19:02;99272.91;;;33.39;37.98
54666;BME280;40566;50.006;36.180;2023-08-06T12:24:04;99274.78;;;33.45;37.75
54666;BME280;40566;50.006;36.180;2023-08-06T12:29:06;99277.34;;;35.12;35.34
54666;BME280;40566;50.006;36.180;2023-08-06T12:34:07;99275.47;;;36.58;32.35
54666;BME280;40566;50.006;36.180;2023-08-06T12:39:09;99259.94;;;35.14;35.21
54666;BME280;40566;50.006;36.180;2023-08-06T12:44:10;99256.50;;;34.22;36.20
54666;BME280;40566;50.006;36.180;2023-08-06T12:49:11;99252.38;;;34.13;36.66
54666;BME280;40566;50.006;36.180;2023-08-06T12:54:11;99255.47;;;34.36;36.13
54666;BME280;40566;50.006;36.180;2023-08-06T12:59:14;99240.19;;;34.17;35.90
54666;BME280;40566;50.006;36.180;2023-08-06T13:04:15;99237.50;;;33.90;36.64
54666;BME280;40566;50.006;36.180;2023-08-06T13:09:16;99230.28;;;33.64;36.70
54666;BME280;40566;50.006;36.180;2023-08-06T13:14:16;99239.56;;;34.02;36.04
54666;BME280;40566;50.006;36.180;2023-08-06T13:19:17;99215.19;;;33.96;36.03
54666;BME280;40566;50.006;36.180;2023-08-06T13:24:18;99226.16;;;33.88;36.31
54666;BME280;40566;50.006;36.180;2023-08-06T13:29:19;99223.84;;;33.58;36.74
54666;BME280;40566;50.006;36.180;2023-08-06T13:34:20;99220.50;;;33.36;37.20
54666;BME280;40566;50.006;36.180;2023-08-06T13:39:20;99204.59;;;33.22;37.53
54666;BME280;40566;50.006;36.180;2023-08-06T13:44:21;99196.09;;;33.05;37.50
54666;BME280;40566;50.006;36.180;2023-08-06T13:49:22;99200.59;;;32.91;37.57
54666;BME280;40566;50.006;36.180;2023-08-06T13:54:22;99193.13;;;32.79;37.63
54666;BME280;40566;50.006;36.180;2023-08-06T13:59:23;99186.50;;;32.69;37.77
54666;BME280;40566;50.006;36.180;2023-08-06T14:04:24;99183.19;;;32.67;38.47
54666;BME280;40566;50.006;36.180;2023-08-06T14:09:25;99178.19;;;32.57;38.97
54666;BME280;40566;50.006;36.180;2023-08-06T14:14:26;99183.47;;;32.44;39.45
54666;BME280;40566;50.006;36.180;2023-08-06T14:19:27;99180.31;;;32.33;39.95
54666;BME280;40566;50.006;36.180;2023-08-06T14:24:29;99172.03;;;32.21;40.31
54666;BME280;40566;50.006;36.180;2023-08-06T14:29:29;99169.69;;;32.12;40.54
54666;BME280;40566;50.006;36.180;2023-08-06T14:34:30;99170.50;;;32.06;40.76
54666;BME280;40566;50.006;36.180;2023-08-06T14:39:30;99164.63;;;31.95;40.78
54666;BME280;40566;50.006;36.180;2023-08-06T14:44:31;99170.31;;;31.86;41.05
54666;BME280;40566;50.006;36.180;2023-08-06T14:49:32;99166.13;;;31.76;41.12
54666;BME280;40566;50.006;36.180;2023-08-06T14:54:32;99171.44;;;31.70;41.45
54666;BME280;40566;50.006;36.180;2023-08-06T14:59:33;99161.91;;;31.60;41.41
54666;BME280;40566;50.006;36.180;2023-08-06T15:04:34;99160.63;;;31.56;41.59
54666;BME280;40566;50.006;36.180;2023-08-06T15:09:34;99154.78;;;31.46;41.93
54666;BME280;40566;50.006;36.180;2023-08-06T15:14:35;99149.78;;;31.43;42.18
54666;BME280;40566;50.006;36.180;2023-08-06T15:19:35;99147.25;;;31.35;42.64
54666;BME280;40566;50.006;36.180;2023-08-06T15:24:36;99146.56;;;31.26;42.75
54666;BME280;40566;50.006;36.180;2023-08-06T15:29:41;99133.75;;;31.21;43.15
54666;BME280;40566;50.006;36.180;2023-08-06T15:34:43;99137.38;;;31.14;43.43
54666;BME280;40566;50.006;36.180;2023-08-06T15:39:43;99138.34;;;31.06;43.62
54666;BME280;40566;50.006;36.180;2023-08-06T15:44:44;99141.94;;;30.98;43.99
54666;BME280;40566;50.006;36.180;2023-08-06T15:49:45;99146.03;;;30.94;44.23
54666;BME280;40566;50.006;36.180;2023-08-06T15:54:45;99151.22;;;30.81;44.70
54666;BME280;40566;50.006;36.180;2023-08-06T15:59:46;99154.81;;;30.73;44.67
54666;BME280;40566;50.006;36.180;2023-08-06T16:04:46;99155.94;;;30.64;45.27
54666;BME280;40566;50.006;36.180;2023-08-06T16:09:47;99147.38;;;30.54;45.61
54666;BME280;40566;50.006;36.180;2023-08-06T16:14:51;99140.50;;;30.44;45.88
54666;BME280;40566;50.006;36.180;2023-08-06T16:19:51;99152.31;;;30.35;46.08
54666;BME280;40566;50.006;36.180;2023-08-06T16:24:52;99142.69;;;30.26;46.47
54666;BME280;40566;50.006;36.180;2023-08-06T16:29:52;99141.31;;;30.15;46.75
54666;BME280;40566;50.006;36.180;2023-08-06T16:34:53;99138.09;;;30.05;46.73
54666;BME280;40566;50.006;36.180;2023-08-06T16:39:54;99128.72;;;29.94;47.13
54666;BME280;40566;50.006;36.180;2023-08-06T16:44:54;99131.47;;;29.86;47.00
54666;BME280;40566;50.006;36.180;2023-08-06T16:49:55;99132.56;;;29.77;47.54
54666;BME280;40566;50.006;36.180;2023-08-06T16:54:55;99136.28;;;29.67;47.40
54666;BME280;40566;50.006;36.180;2023-08-06T16:59:56;99139.00;;;29.59;47.37
54666;BME280;40566;50.006;36.180;2023-08-06T17:04:57;99134.75;;;29.50;47.77
54666;BME280;40566;50.006;36.180;2023-08-06T17:09:58;99142.66;;;29.43;47.79
54666;BME280;40566;50.006;36.180;2023-08-06T17:14:58;99132.41;;;29.32;48.03
54666;BME280;40566;50.006;36.180;2023-08-06T17:19:59;99137.63;;;29.25;48.38
54666;BME280;40566;50.006;36.180;2023-08-06T17:25:00;99132.53;;;29.16;48.55
54666;BME280;40566;50.006;36.180;2023-08-06T17:30:02;99135.06;;;29.09;48.70
54666;BME280;40566;50.006;36.180;2023-08-06T17:35:03;99127.09;;;29.01;48.43
54666;BME280;40566;50.006;36.180;2023-08-06T17:40:04;99116.53;;;28.93;48.52
54666;BME280;40566;50.006;36.180;2023-08-06T17:45:05;99112.91;;;28.85;48.77
54666;BME280;40566;50.006;36.180;2023-08-06T17:50:06;99111.97;;;28.78;49.01
54666;BME280;40566;50.006;36.180;2023-08-06T17:55:07;99115.00;;;28.67;49.04
54666;BME280;40566;50.006;36.180;2023-08-06T18:00:09;99102.88;;;28.64;49.26
54666;BME280;40566;50.006;36.180;2023-08-06T18:05:09;99106.25;;;28.58;49.13
54666;BME280;40566;50.006;36.180;2023-08-06T18:10:14;99101.78;;;28.51;49.25
54666;BME280;40566;50.006;36.180;2023-08-06T18:15:15;99086.66;;;28.43;49.40
54666;BME280;40566;50.006;36.180;2023-08-06T18:20:16;99096.69;;;28.33;49.98
54666;BME280;40566;50.006;36.180;2023-08-06T18:25:17;99085.75;;;28.27;50.30
54666;BME280;40566;50.006;36.180;2023-08-06T18:30:17;99079.81;;;28.17;50.12
54666;BME280;40566;50.006;36.180;2023-08-06T18:35:18;99075.34;;;28.09;50.53
54666;BME280;40566;50.006;36.180;2023-08-06T18:40:18;99066.41;;;28.02;50.84
54666;BME280;40566;50.006;36.180;2023-08-06T18:45:19;99078.03;;;28.01;50.99
54666;BME280;40566;50.006;36.180;2023-08-06T18:50:19;99064.25;;;27.98;50.95
54666;BME280;40566;50.006;36.180;2023-08-06T18:55:20;99054.31;;;27.92;51.46
54666;BME280;40566;50.006;36.180;2023-08-06T19:00:20;99061.78;;;27.88;51.91
54666;BME280;40566;50.006;36.180;2023-08-06T19:05:21;99060.59;;;27.82;51.85
54666;BME280;40566;50.006;36.180;2023-08-06T19:10:22;99049.69;;;27.77;51.78
54666;BME280;40566;50.006;36.180;2023-08-06T19:15:24;99049.19;;;27.74;51.99
54666;BME280;40566;50.006;36.180;2023-08-06T19:20:25;99034.56;;;27.69;52.30
54666;BME280;40566;50.006;36.180;2023-08-06T19:25:25;99036.41;;;27.69;52.12
54666;BME280;40566;50.006;36.180;2023-08-06T19:30:26;99027.28;;;27.63;52.36
54666;BME280;40566;50.006;36.180;2023-08-06T19:35:27;99039.91;;;27.61;52.29
54666;BME280;40566;50.006;36.180;2023-08-06T19:40:27;99038.59;;;27.57;52.28
54666;BME280;40566;50.006;36.180;2023-08-06T19:45:28;99030.97;;;27.54;52.47
54666;BME280;40566;50.006;36.180;2023-08-06T19:50:28;99036.63;;;27.51;52.77
54666;BME280;40566;50.006;36.180;2023-08-06T19:55:29;99025.66;;;27.46;52.85
54666;BME280;40566;50.006;36.180;2023-08-06T20:00:30;99035.94;;;27.41;52.99
54666;BME280;40566;50.006;36.180;2023-08-06T20:05:30;99018.03;;;27.35;52.81
54666;BME280;40566;50.006;36.180;2023-08-06T20:10:31;99026.38;;;27.32;52.99
54666;BME280;40566;50.006;36.180;2023-08-06T20:15:31;99029.69;;;27.25;53.42
54666;BME280;40566;50.006;36.180;2023-08-06T20:20:36;99001.94;;;27.20;53.50
54666;BME280;40566;50.006;36.180;2023-08-06T20:25:36;99008.25;;;27.10;53.51
54666;BME280;40566;50.006;36.180;2023-08-06T20:30:40;98991.00;;;27.06;53.48
54666;BME280;40566;50.006;36.180;2023-08-06T20:35:41;98995.50;;;26.98;53.93
54666;BME280;40566;50.006;36.180;2023-08-06T20:40:41;98985.34;;;26.93;53.76
54666;BME280;40566;50.006;36.180;2023-08-06T20:45:42;98981.53;;;26.87;54.02
54666;BME280;40566;50.006;36.180;2023-08-06T20:50:43;98980.22;;;26.83;53.93
54666;BME280;40566;50.006;36.180;2023-08-06T20:55:43;98974.59;;;26.78;54.28
54666;BME280;40566;50.006;36.180;2023-08-06T21:00:44;98975.94;;;26.74;54.21
54666;BME280;40566;50.006;36.180;2023-08-06T21:05:44;98962.00;;;26.72;54.05
54666;BME280;40566;50.006;36.180;2023-08-06T21:10:46;98949.72;;;26.71;53.87
54666;BME280;40566;50.006;36.180;2023-08-06T21:15:54;98944.75;;;26.68;54.08
54666;BME280;40566;50.006;36.180;2023-08-06T21:20:56;98947.06;;;26.63;54.25
54666;BME280;40566;50.006;36.180;2023-08-06T21:25:59;98943.25;;;26.65;54.02
54666;BME280;40566;50.006;36.180;2023-08-06T21:31:02;98942.41;;;26.65;53.37
54666;BME280;40566;50.006;36.180;2023-08-06T21:36:04;98945.06;;;26.65;53.26
54666;BME280;40566;50.006;36.180;2023-08-06T21:46:11;98926.19;;;26.68;53.17
54666;BME280;40566;50.006;36.180;2023-08-06T21:51:14;98917.56;;;26.66;52.73
54666;BME280;40566;50.006;36.180;2023-08-06T21:56:15;98926.19;;;26.68;52.83
54666;BME280;40566;50.006;36.180;2023-08-06T22:01:16;98929.50;;;26.70;52.80
54666;BME280;40566;50.006;36.180;2023-08-06T22:06:20;98926.34;;;26.66;52.69
54666;BME280;40566;50.006;36.180;2023-08-06T22:11:21;98927.66;;;26.62;52.57
54666;BME280;40566;50.006;36.180;2023-08-06T22:16:21;98932.97;;;26.62;52.27
54666;BME280;40566;50.006;36.180;2023-08-06T22:21:22;98926.00;;;26.61;52.51
54666;BME280;40566;50.006;36.180;2023-08-06T22:26:22;98925.34;;;26.59;52.63
54666;BME280;40566;50.006;36.180;2023-08-06T22:31:23;98916.69;;;26.57;52.31
54666;BME280;40566;50.006;36.180;2023-08-06T22:36:23;98922.00;;;26.49;52.36
54666;BME280;40566;50.006;36.180;2023-08-06T22:41:25;98916.84;;;26.47;52.69
54666;BME280;40566;50.006;36.180;2023-08-06T22:46:26;98910.56;;;26.48;52.39
54666;BME280;40566;50.006;36.180;2023-08-06T22:51:26;98906.25;;;26.47;52.15
54666;BME280;40566;50.006;36.180;2023-08-06T22:56:27;98892.16;;;26.47;52.22
54666;BME280;40566;50.006;36.180;2023-08-06T23:01:28;98891.34;;;26.46;51.89
54666;BME280;40566;50.006;36.180;2023-08-06T23:06:28;98885.38;;;26.44;52.13
54666;BME280;40566;50.006;36.180;2023-08-06T23:11:29;98881.03;;;26.43;51.75
54666;BME280;40566;50.006;36.180;2023-08-06T23:16:29;98882.69;;;26.36;51.71
54666;BME280;40566;50.006;36.180;2023-08-06T23:21:30;98882.03;;;26.34;52.09
54666;BME280;40566;50.006;36.180;2023-08-06T23:26:31;98873.75;;;26.29;52.13
54666;BME280;40566;50.006;36.180;2023-08-06T23:31:31;98870.91;;;26.22;52.09
54666;BME280;40566;50.006;36.180;2023-08-06T23:36:32;98867.78;;;26.19;51.93
54666;BME280;40566;50.006;36.180;2023-08-06T23:41:32;98868.94;;;26.16;52.30
54666;BME280;40566;50.006;36.180;2023-08-06T23:46:33;98866.28;;;26.16;51.83
54666;BME280;40566;50.006;36.180;2023-08-06T23:51:35;98854.19;;;26.14;51.83
54666;BME280;40566;50.006;36.180;2023-08-06T23:56:36;98855.50;;;26.09;51.93
